Time;durP1;ratioP1;P1;durP2;ratioP2;P2;SDS_P1;SDS_P2;PMS_P1;PMS_P2;Temp;Humidity;BMP_temperature;BMP_pressure;BME280_temperature;BME280_humidity;BME280_pressure;Samples;Min_cycle;Max_cycle;Signal;HPM_P1;HPM_P2
2023/01/25 00:01:03;;;;;;;44.05;26.33;;;3.20;99.90;;;;;;5031016;28;20350;-77
2023/01/25 00:03:30;;;;;;;46.40;27.27;;;3.20;99.90;;;;;;5016462;28;20042;-80
2023/01/25 00:06:00;;;;;;;50.15;28.20;;;4.70;99.90;;;;;;4997741;28;20060;-77
2023/01/25 00:08:28;;;;;;;47.35;27.75;;;3.20;99.90;;;;;;5016122;28;20380;-76
2023/01/25 00:10:55;;;;;;;43.33;26.65;;;3.20;99.90;;;;;;5014895;28;20046;-76
2023/01/25 00:13:25;;;;;;;45.67;27.30;;;4.00;99.90;;;;;;5015570;28;20054;-79
2023/01/25 00:15:59;;;;;;;53.72;32.33;;;3.30;99.90;;;;;;5015724;28;20068;-79
2023/01/25 00:18:26;;;;;;;52.30;30.67;;;3.40;99.90;;;;;;5015123;28;20056;-79
2023/01/25 00:20:54;;;;;;;49.60;29.00;;;3.00;99.90;;;;;;4998780;28;20377;-78
2023/01/25 00:23:21;;;;;;;49.17;28.75;;;3.00;99.90;;;;;;5015984;28;20038;-78
2023/01/25 00:25:56;;;;;;;46.08;28.25;;;3.00;99.90;;;;;;5014474;28;20045;-79
2023/01/25 00:28:24;;;;;;;47.30;28.17;;;3.00;99.90;;;;;;5016177;28;20046;-77
2023/01/25 00:30:52;;;;;;;48.08;29.00;;;3.00;99.90;;;;;;5014392;28;20045;-78
2023/01/25 00:33:32;;;;;;;44.65;26.63;;;3.00;99.90;;;;;;5015795;28;20061;-77
2023/01/25 00:36:00;;;;;;;52.35;30.15;;;2.90;99.90;;;;;;4998174;28;20473;-75
2023/01/25 00:38:32;;;;;;;51.17;28.98;;;2.90;99.90;;;;;;5014491;28;20046;-78
2023/01/25 00:41:00;;;;;;;48.15;29.33;;;2.90;99.90;;;;;;5015825;28;20046;-78
2023/01/25 00:43:27;;;;;;;52.70;30.48;;;3.30;99.90;;;;;;4998156;28;20045;-78
2023/01/25 00:46:01;;;;;;;57.15;31.23;;;2.90;99.90;;;;;;5014183;28;20054;-80
2023/01/25 00:48:29;;;;;;;54.75;31.52;;;3.10;99.90;;;;;;4998257;28;20050;-77
2023/01/25 00:51:01;;;;;;;51.35;29.98;;;2.90;99.90;;;;;;4997023;28;20061;-78
2023/01/25 00:53:28;;;;;;;50.97;29.20;;;3.60;99.90;;;;;;4997951;28;20057;-77
2023/01/25 00:55:56;;;;;;;49.38;28.50;;;3.00;99.90;;;;;;4998317;28;20046;-78
2023/01/25 00:58:25;;;;;;;47.30;26.80;;;3.70;99.90;;;;;;4996893;28;20053;-80
2023/01/25 01:00:53;;;;;;;47.10;26.85;;;2.90;99.90;;;;;;5014579;28;20049;-77
2023/01/25 01:03:21;;;;;;;42.42;26.15;;;2.80;99.90;;;;;;4981930;28;20060;-79
2023/01/25 01:06:02;;;;;;;47.47;27.33;;;2.80;99.90;;;;;;4996860;28;20061;-76
2023/01/25 01:08:32;;;;;;;49.92;27.77;;;2.80;99.90;;;;;;5015124;28;20050;-79
2023/01/25 01:11:01;;;;;;;45.35;26.63;;;2.80;99.90;;;;;;4996769;28;20469;-80
2023/01/25 01:13:29;;;;;;;48.40;27.50;;;2.80;99.90;;;;;;4998011;28;20057;-79
2023/01/25 01:16:01;;;;;;;45.35;27.27;;;2.90;99.90;;;;;;4997787;28;20042;-79
2023/01/25 01:18:34;;;;;;;50.80;29.25;;;2.80;99.90;;;;;;4996820;28;20050;-79
2023/01/25 01:21:02;;;;;;;51.78;28.40;;;3.10;99.90;;;;;;5015146;28;20046;-80
2023/01/25 01:23:30;;;;;;;49.45;28.90;;;2.80;99.90;;;;;;4997635;28;20072;-80
2023/01/25 01:26:03;;;;;;;49.70;27.35;;;2.80;99.90;;;;;;4980292;28;20385;-77
2023/01/25 01:28:31;;;;;;;44.58;26.77;;;2.70;99.90;;;;;;4997515;28;20046;-77
2023/01/25 01:31:01;;;;;;;47.00;27.38;;;2.80;99.90;;;;;;4997167;28;20053;-78
2023/01/25 01:33:32;;;;;;;46.03;24.95;;;2.80;99.90;;;;;;4997697;28;20045;-79
2023/01/25 01:36:10;;;;;;;43.05;24.60;;;2.90;99.90;;;;;;4997658;28;20053;-78
2023/01/25 01:38:37;;;;;;;42.97;24.55;;;2.80;99.90;;;;;;4980437;28;20468;-78
2023/01/25 01:41:05;;;;;;;45.60;26.75;;;2.80;99.90;;;;;;5014733;28;20425;-79
2023/01/25 01:43:34;;;;;;;47.03;28.77;;;3.10;99.90;;;;;;4997438;28;20042;-77
2023/01/25 01:46:15;;;;;;;41.63;25.30;;;2.80;99.90;;;;;;4996469;28;20046;-75
2023/01/25 01:48:43;;;;;;;46.15;26.35;;;2.80;99.90;;;;;;4997452;28;20052;-78
2023/01/25 01:51:13;;;;;;;48.70;29.02;;;2.80;99.90;;;;;;4996219;28;20659;-79
2023/01/25 01:53:47;;;;;;;44.03;25.95;;;3.00;99.90;;;;;;4981335;28;20054;-76
2023/01/25 01:56:19;;;;;;;41.53;23.02;;;2.80;99.90;;;;;;4981564;28;20049;-78
2023/01/25 01:58:50;;;;;;;38.80;23.05;;;3.10;99.90;;;;;;4996452;28;20050;-78
2023/01/25 02:01:19;;;;;;;47.30;25.25;;;2.80;99.90;;;;;;5014232;28;20046;-78
2023/01/25 02:03:47;;;;;;;40.08;23.95;;;2.90;99.90;;;;;;4997441;28;20042;-79
2023/01/25 02:06:24;;;;;;;51.55;28.02;;;2.80;99.90;;;;;;4996325;28;20057;-76
2023/01/25 02:08:53;;;;;;;49.28;27.77;;;3.70;99.90;;;;;;4998019;28;20368;-79
2023/01/25 02:11:21;;;;;;;49.92;29.38;;;2.70;99.90;;;;;;5013748;28;20050;-76
2023/01/25 02:13:49;;;;;;;;;;;2.70;99.90;;;;;;5001625;28;20065;-77
2023/01/25 02:16:21;;;;;;;53.35;29.63;;;2.70;99.90;;;;;;5018153;28;19921;-78
2023/01/25 02:18:49;;;;;;;53.45;29.45;;;2.70;99.90;;;;;;4999700;28;20042;-75
2023/01/25 02:21:16;;;;;;;55.90;29.90;;;2.70;99.90;;;;;;5000849;28;20038;-79
2023/01/25 02:23:51;;;;;;;51.70;30.52;;;3.40;99.90;;;;;;5018210;28;20481;-78
2023/01/25 02:26:20;;;;;;;52.67;29.98;;;2.70;99.90;;;;;;4999865;28;20373;-79
2023/01/25 02:28:54;;;;;;;55.13;31.27;;;2.60;99.90;;;;;;5018093;28;20068;-75
2023/01/25 02:31:23;;;;;;;55.22;29.85;;;2.60;99.90;;;;;;4999770;28;20056;-79
2023/01/25 02:33:52;;;;;;;56.53;32.70;;;2.80;99.90;;;;;;5000508;28;20384;-77
2023/01/25 02:36:23;;;;;;;57.95;31.83;;;2.90;99.90;;;;;;5000335;28;20055;-82
2023/01/25 02:38:59;;;;;;;57.65;31.70;;;3.60;99.90;;;;;;5016478;28;20057;-76
2023/01/25 02:41:30;;;;;;;52.10;30.42;;;2.50;99.90;;;;;;5000346;28;20046;-78
2023/01/25 02:44:03;;;;;;;57.42;32.22;;;2.50;99.90;;;;;;5000883;28;20057;-81
2023/01/25 02:46:37;;;;;;;57.25;31.25;;;2.50;99.90;;;;;;4999247;28;20041;-79
2023/01/25 02:49:06;;;;;;;56.75;33.35;;;2.50;99.90;;;;;;5000446;28;20050;-75
2023/01/25 02:51:38;;;;;;;57.28;32.67;;;2.40;99.90;;;;;;4999040;28;20061;-77
2023/01/25 02:54:08;;;;;;;57.97;33.17;;;2.50;99.90;;;;;;4984098;28;20050;-79
2023/01/25 02:56:39;;;;;;;48.22;27.85;;;2.50;99.90;;;;;;5000007;28;20045;-76
2023/01/25 02:59:09;;;;;;;48.55;28.52;;;2.50;99.90;;;;;;4998944;28;20037;-78
2023/01/25 03:01:40;;;;;;;51.00;29.80;;;2.50;99.90;;;;;;5017435;28;20060;-80
2023/01/25 03:04:08;;;;;;;53.70;29.63;;;2.40;99.90;;;;;;5036155;28;20056;-76
2023/01/25 03:06:36;;;;;;;47.47;28.38;;;2.40;99.90;;;;;;5035409;28;20154;-77
2023/01/25 03:09:05;;;;;;;;;;;2.40;99.90;;;;;;5038036;28;20045;-80
2023/01/25 03:11:33;;;;;;;48.33;27.17;;;2.40;99.90;;;;;;5035102;28;19928;-75
2023/01/25 03:14:01;;;;;;;47.22;26.98;;;2.40;99.90;;;;;;5019545;28;20046;-78
2023/01/25 03:16:30;;;;;;;44.90;26.83;;;2.60;99.90;;;;;;5035939;28;20349;-76
2023/01/25 03:18:59;;;;;;;51.05;29.33;;;2.40;99.90;;;;;;5034719;28;20041;-79
2023/01/25 03:21:27;;;;;;;51.17;30.40;;;2.40;99.90;;;;;;5035655;28;20037;-80
2023/01/25 03:23:59;;;;;;;41.83;24.33;;;3.10;99.90;;;;;;5035246;28;20056;-80
2023/01/25 03:27:09;;;;;;;48.03;28.38;;;2.30;99.90;;;;;;5035366;28;20049;-78
2023/01/25 03:29:25;;;;;;;49.33;28.42;;;2.40;99.90;;;;;;5035579;28;20045;-77
2023/01/25 03:31:53;;;;;;;49.50;27.85;;;4.00;99.90;;;;;;5034634;28;20053;-78
2023/01/25 03:34:21;;;;;;;48.50;26.65;;;3.10;99.90;;;;;;5035642;28;20049;-78
2023/01/25 03:36:48;;;;;;;44.85;25.85;;;3.00;99.90;;;;;;5036222;28;20052;-79
2023/01/25 03:39:16;;;;;;;46.95;25.95;;;3.20;99.90;;;;;;5035478;28;20052;-78
2023/01/25 03:41:43;;;;;;;50.80;27.75;;;3.20;99.90;;;;;;5036137;28;20050;-77
2023/01/25 03:44:13;;;;;;;50.25;27.73;;;3.10;99.90;;;;;;5018049;28;20037;-77
2023/01/25 03:46:43;;;;;;;44.40;26.55;;;2.30;99.90;;;;;;5035170;28;20060;-77
2023/01/25 03:49:11;;;;;;;;;;;2.40;99.90;;;;;;5035979;28;20372;-76
2023/01/25 03:51:38;;;;;;;41.15;21.80;;;2.40;99.90;;;;;;5034368;28;19921;-80
2023/01/25 03:54:08;;;;;;;47.15;25.15;;;3.20;99.90;;;;;;5018692;28;20053;-78
2023/01/25 03:56:37;;;;;;;49.00;27.13;;;2.40;99.90;;;;;;5034974;28;20060;-77
2023/01/25 03:59:13;;;;;;;48.92;27.52;;;2.80;99.90;;;;;;5017601;28;20065;-78
2023/01/25 04:01:41;;;;;;;53.20;28.08;;;2.50;99.90;;;;;;5034824;28;20056;-74
2023/01/25 04:04:08;;;;;;;56.47;30.85;;;2.90;99.90;;;;;;5034715;28;20049;-76
2023/01/25 04:06:38;;;;;;;50.20;28.95;;;2.50;99.90;;;;;;5034869;28;20049;-80
2023/01/25 04:09:06;;;;;;;;;;;3.00;99.90;;;;;;5035141;28;20050;-79
2023/01/25 04:11:39;;;;;;;41.45;22.63;;;2.50;99.90;;;;;;5033979;28;19943;-77
2023/01/25 04:14:07;;;;;;;50.60;26.42;;;2.50;99.90;;;;;;5018108;28;20054;-79
2023/01/25 04:16:43;;;;;;;51.40;28.88;;;2.50;99.90;;;;;;5034790;28;20041;-79
2023/01/25 04:19:23;;;;;;;45.05;24.55;;;2.70;99.90;;;;;;5033495;28;20380;-75
2023/01/25 04:21:50;;;;;;;44.03;25.30;;;2.40;99.90;;;;;;5018743;28;20049;-77
2023/01/25 04:24:18;;;;;;;44.47;25.20;;;2.40;99.90;;;;;;5033483;28;20056;-76
2023/01/25 04:26:47;;;;;;;47.22;26.08;;;2.40;99.90;;;;;;5034527;28;20068;-77
2023/01/25 04:29:14;;;;;;;52.78;28.75;;;2.40;99.90;;;;;;5034760;28;20056;-75
2023/01/25 04:31:42;;;;;;;50.97;27.88;;;3.50;99.90;;;;;;5033343;28;20465;-77
2023/01/25 04:34:10;;;;;;;57.75;31.35;;;2.40;99.90;;;;;;5033760;28;20045;-77
2023/01/25 04:36:38;;;;;;;60.65;31.42;;;2.40;99.90;;;;;;5034217;28;20048;-79
2023/01/25 04:39:06;;;;;;;62.42;32.33;;;3.60;99.90;;;;;;5033464;28;20453;-77
2023/01/25 04:41:36;;;;;;;61.88;31.33;;;2.40;99.90;;;;;;5034361;28;20037;-80
2023/01/25 04:44:04;;;;;;;60.22;32.13;;;2.40;99.90;;;;;;5034334;28;20052;-80
2023/01/25 04:46:32;;;;;;;61.83;33.85;;;2.30;99.90;;;;;;5016737;28;20068;-76
2023/01/25 04:49:01;;;;;;;58.60;32.72;;;3.60;99.90;;;;;;5034220;28;20064;-76
2023/01/25 04:51:28;;;;;;;69.03;33.88;;;2.30;99.90;;;;;;5033300;28;20056;-79
2023/01/25 04:53:56;;;;;;;64.75;33.35;;;2.30;99.90;;;;;;5017812;28;20060;-78
2023/01/25 04:56:24;;;;;;;66.18;34.25;;;2.20;99.90;;;;;;5034088;28;20350;-78
2023/01/25 04:58:54;;;;;;;64.78;34.33;;;2.20;99.90;;;;;;5033080;28;20376;-79
2023/01/25 05:01:22;;;;;;;61.35;33.30;;;3.50;99.90;;;;;;5017300;28;20368;-80
2023/01/25 05:03:51;;;;;;;67.10;35.75;;;2.20;99.90;;;;;;5017947;28;20053;-77
2023/01/25 05:06:35;;;;;;;63.13;33.28;;;2.20;99.90;;;;;;5033002;28;20054;-79
2023/01/25 05:09:03;;;;;;;64.15;34.33;;;2.20;99.90;;;;;;5017786;28;20353;-78
2023/01/25 05:11:33;;;;;;;62.83;32.85;;;4.40;99.90;;;;;;5016274;28;20057;-75
2023/01/25 05:14:10;;;;;;;64.38;32.50;;;3.20;99.90;;;;;;5034164;28;20053;-77
2023/01/25 05:16:38;;;;;;;60.50;33.20;;;2.90;99.90;;;;;;5033747;28;20449;-80
2023/01/25 05:19:09;;;;;;;68.40;34.95;;;2.20;99.90;;;;;;5033086;28;20041;-79
2023/01/25 05:22:01;;;;;;;63.03;33.47;;;2.40;99.90;;;;;;5029218;28;20058;-78
2023/01/25 05:24:35;;;;;;;59.65;32.75;;;2.20;99.90;;;;;;5033318;28;20056;-79
2023/01/25 05:27:08;;;;;;;70.65;34.10;;;2.30;99.90;;;;;;5033965;28;20049;-78
2023/01/25 05:29:57;;;;;;;63.97;33.22;;;2.20;99.90;;;;;;5013964;28;20073;-79
2023/01/25 05:32:51;;;;;;;64.68;33.75;;;3.10;99.90;;;;;;5030612;28;20460;-76
2023/01/25 05:35:19;;;;;;;67.30;35.30;;;2.20;99.90;;;;;;5017340;28;20053;-76
2023/01/25 05:37:49;;;;;;;63.20;34.00;;;2.20;99.90;;;;;;5016336;28;20053;-80
2023/01/25 05:40:21;;;;;;;65.65;34.97;;;3.40;99.90;;;;;;5033638;28;20089;-79
2023/01/25 05:42:57;;;;;;;69.90;36.40;;;4.20;99.90;;;;;;5033498;28;20042;-79
2023/01/25 05:45:29;;;;;;;68.47;33.70;;;2.80;99.90;;;;;;5032942;28;20050;-77
2023/01/25 05:47:58;;;;;;;67.15;35.03;;;2.10;99.90;;;;;;5037529;28;20053;-77
2023/01/25 05:50:26;;;;;;;67.22;34.90;;;3.80;99.90;;;;;;5037518;28;20054;-76
2023/01/25 05:53:06;;;;;;;68.35;35.40;;;2.10;99.90;;;;;;5021598;28;20049;-80
2023/01/25 05:55:35;;;;;;;66.45;33.63;;;4.10;99.90;;;;;;5037626;28;20064;-77
2023/01/25 05:58:07;;;;;;;71.57;35.58;;;2.10;99.90;;;;;;5020589;28;20052;-77
2023/01/25 06:00:35;;;;;;;72.22;36.08;;;2.10;99.90;;;;;;5035568;28;20052;-78
2023/01/25 06:03:03;;;;;;;70.30;35.70;;;2.10;99.90;;;;;;5001413;28;20046;-77
2023/01/25 06:05:34;;;;;;;69.40;35.65;;;2.00;99.90;;;;;;4999947;28;20042;-76
2023/01/25 06:08:01;;;;;;;71.68;36.55;;;2.10;99.90;;;;;;5018611;28;20063;-78
2023/01/25 06:10:37;;;;;;;70.45;36.95;;;2.10;99.90;;;;;;5001416;28;20049;-75
2023/01/25 06:13:05;;;;;;;68.65;34.35;;;2.20;99.90;;;;;;4999866;28;20049;-76
2023/01/25 06:15:33;;;;;;;72.80;35.58;;;2.10;99.90;;;;;;5018136;28;20385;-79
2023/01/25 06:18:20;;;;;;;67.57;36.40;;;3.00;99.90;;;;;;5016733;28;20057;-78
2023/01/25 06:21:06;;;;;;;72.93;35.85;;;3.40;99.90;;;;;;4985089;28;20050;-80
2023/01/25 06:23:36;;;;;;;72.68;36.88;;;2.70;99.90;;;;;;5017837;28;20125;-76
2023/01/25 06:26:07;;;;;;;78.97;38.63;;;2.10;99.90;;;;;;5016962;28;20046;-77
2023/01/25 06:28:36;;;;;;;71.03;36.58;;;2.10;99.90;;;;;;4984410;28;20046;-77
2023/01/25 06:31:09;;;;;;;74.75;38.25;;;2.10;99.90;;;;;;5016573;28;20049;-76
2023/01/25 06:33:38;;;;;;;76.07;39.00;;;2.00;99.90;;;;;;5000896;28;20057;-77
2023/01/25 06:36:12;;;;;;;86.10;40.38;;;2.10;99.90;;;;;;5000717;28;20061;-76
2023/01/25 06:38:40;;;;;;;74.15;37.50;;;1.90;99.90;;;;;;5016542;28;20038;-78
2023/01/25 06:41:10;;;;;;;76.13;38.80;;;2.00;99.90;;;;;;5017353;28;20053;-77
2023/01/25 06:43:38;;;;;;;77.45;38.55;;;2.00;99.90;;;;;;5017898;28;20068;-79
2023/01/25 06:46:08;;;;;;;80.05;40.08;;;2.30;99.90;;;;;;4999197;28;20046;-79
2023/01/25 06:48:35;;;;;;;82.22;40.03;;;2.50;99.90;;;;;;5000555;28;20053;-76
2023/01/25 06:51:05;;;;;;;90.63;41.35;;;3.10;99.90;;;;;;4999505;28;20056;-79
2023/01/25 06:53:36;;;;;;;83.40;40.60;;;2.00;99.90;;;;;;5017236;28;20058;-78
2023/01/25 06:56:16;;;;;;;84.97;41.50;;;2.00;99.90;;;;;;5017925;28;20046;-77
2023/01/25 06:58:44;;;;;;;85.43;39.60;;;2.00;99.90;;;;;;5015760;28;20046;-78
2023/01/25 07:01:26;;;;;;;83.38;40.97;;;2.70;99.90;;;;;;5016992;28;20050;-79
2023/01/25 07:03:56;;;;;;;83.93;40.33;;;2.00;99.90;;;;;;5017090;28;20046;-78
2023/01/25 07:06:24;;;;;;;80.43;40.08;;;2.20;99.90;;;;;;5015959;28;20131;-77
2023/01/25 07:08:52;;;;;;;81.57;38.40;;;1.90;99.90;;;;;;5017469;28;20042;-78
2023/01/25 07:11:19;;;;;;;81.07;40.28;;;2.00;99.90;;;;;;5015814;28;20046;-78
2023/01/25 07:13:51;;;;;;;82.30;40.38;;;2.00;99.90;;;;;;5000250;28;20053;-79
2023/01/25 07:16:20;;;;;;;88.28;42.13;;;2.70;99.90;;;;;;4983127;28;20050;-80
2023/01/25 07:18:49;;;;;;;85.80;42.88;;;3.00;99.90;;;;;;4982359;28;20046;-78
2023/01/25 07:21:20;;;;;;;97.63;41.78;;;4.40;99.90;;;;;;5017331;28;20396;-79
2023/01/25 07:23:51;;;;;;;84.38;40.92;;;3.30;99.90;;;;;;5016863;28;20381;-79
2023/01/25 07:26:22;;;;;;;87.20;42.67;;;2.00;99.90;;;;;;4998467;28;20057;-78
2023/01/25 07:28:50;;;;;;;89.93;42.10;;;1.90;99.90;;;;;;4999633;28;20388;-79
2023/01/25 07:31:20;;;;;;;90.22;43.50;;;1.90;99.90;;;;;;5015433;28;20054;-78
2023/01/25 07:33:50;;;;;;;91.50;43.75;;;1.90;99.90;;;;;;4999414;28;20042;-76
2023/01/25 07:36:18;;;;;;;97.00;44.67;;;4.00;99.90;;;;;;4999390;28;20048;-79
2023/01/25 07:38:46;;;;;;;94.30;39.88;;;3.10;99.90;;;;;;5015492;28;20046;-76
2023/01/25 07:41:15;;;;;;;96.78;41.97;;;3.00;99.90;;;;;;5016359;28;20042;-78
2023/01/25 07:43:42;;;;;;;93.72;41.30;;;1.80;99.90;;;;;;5016445;28;20046;-79
2023/01/25 07:46:17;;;;;;;99.07;42.97;;;1.80;99.90;;;;;;4998237;28;20073;-77
2023/01/25 07:48:52;;;;;;;97.90;40.80;;;2.40;99.90;;;;;;5016596;28;20060;-78
2023/01/25 07:51:21;;;;;;;106.13;44.60;;;1.80;99.90;;;;;;5015380;28;20064;-78
2023/01/25 07:53:54;;;;;;;107.50;43.45;;;1.70;99.90;;;;;;5016277;28;20058;-75
2023/01/25 07:56:23;;;;;;;103.70;44.72;;;3.50;99.90;;;;;;5016733;28;20056;-81
2023/01/25 07:58:53;;;;;;;105.97;44.40;;;1.70;99.90;;;;;;4998230;28;20045;-79
2023/01/25 08:01:26;;;;;;;106.30;45.55;;;3.20;99.90;;;;;;5012450;28;20049;-78
2023/01/25 08:03:56;;;;;;;110.45;45.75;;;3.80;99.90;;;;;;5035113;28;20373;-79
2023/01/25 08:06:39;;;;;;;102.13;44.13;;;2.70;99.90;;;;;;5034628;28;20060;-76
2023/01/25 08:09:11;;;;;;;100.45;43.97;;;1.80;99.90;;;;;;5034545;28;20045;-80
2023/01/25 08:11:40;;;;;;;104.55;44.40;;;1.80;99.90;;;;;;5034643;28;20049;-78
2023/01/25 08:14:08;;;;;;;108.57;46.63;;;3.70;99.90;;;;;;5035534;28;20053;-80
2023/01/25 08:16:36;;;;;;;;;;;1.60;99.90;;;;;;5035326;28;20052;-77
2023/01/25 08:19:11;;;;;;;101.18;43.55;;;1.80;99.90;;;;;;5033301;28;19921;-78
2023/01/25 08:21:40;;;;;;;110.38;46.78;;;1.70;99.90;;;;;;5035032;28;20049;-74
2023/01/25 08:24:08;;;;;;;107.50;45.47;;;1.80;99.90;;;;;;5035354;28;20053;-79
2023/01/25 08:26:38;;;;;;;111.32;47.38;;;1.80;99.90;;;;;;5035913;28;20052;-77
2023/01/25 08:29:06;;;;;;;103.00;43.75;;;2.70;99.90;;;;;;5034839;28;20384;-78
2023/01/25 08:31:34;;;;;;;;;;;4.00;99.90;;;;;;5034506;28;20053;-76
2023/01/25 08:34:04;;;;;;;;;;;1.80;99.90;;;;;;5036071;28;19921;-76
2023/01/25 08:36:32;;;;;;;95.68;38.20;;;1.80;99.90;;;;;;5035166;28;19921;-79
2023/01/25 08:39:01;;;;;;;;;;;2.90;99.90;;;;;;5034008;28;20481;-77
2023/01/25 08:41:30;;;;;;;90.30;36.83;;;1.80;99.90;;;;;;5017909;28;20306;-76
2023/01/25 08:43:58;;;;;;;99.93;40.05;;;2.10;99.90;;;;;;5035166;28;20046;-78
2023/01/25 08:46:28;;;;;;;89.00;32.00;;;3.50;99.90;;;;;;5017015;28;20393;-80
2023/01/25 08:49:00;;;;;;;97.65;37.40;;;1.80;99.90;;;;;;5034656;28;20050;-78
2023/01/25 08:51:32;;;;;;;99.05;38.30;;;1.80;99.90;;;;;;5033972;28;20483;-75
2023/01/25 08:54:05;;;;;;;81.95;32.22;;;1.80;99.90;;;;;;5034067;28;20495;-79
2023/01/25 08:56:39;;;;;;;100.03;37.85;;;1.80;99.90;;;;;;5035004;28;20052;-78
2023/01/25 08:59:11;;;;;;;98.78;38.70;;;1.80;99.90;;;;;;5034080;28;20037;-77
2023/01/25 09:01:39;;;;;;;102.22;34.33;;;3.60;99.90;;;;;;5024383;28;20046;-76
2023/01/25 09:04:08;;;;;;;97.68;35.40;;;1.90;99.90;;;;;;4998649;28;20056;-77
2023/01/25 09:06:35;;;;;;;96.53;36.50;;;3.60;99.90;;;;;;4997094;28;20065;-78
2023/01/25 09:09:03;;;;;;;96.40;34.38;;;1.90;99.90;;;;;;5014954;28;20503;-77
2023/01/25 09:11:32;;;;;;;;;;;1.90;99.90;;;;;;5014209;28;20050;-76
2023/01/25 09:14:00;;;;;;;89.68;32.60;;;1.90;99.90;;;;;;5015331;28;19933;-79
2023/01/25 09:16:28;;;;;;;92.25;35.67;;;1.90;99.90;;;;;;5015142;28;20042;-76
2023/01/25 09:18:56;;;;;;;;;;;1.90;99.90;;;;;;5014325;28;20057;-79
2023/01/25 09:21:24;;;;;;;97.65;36.22;;;1.90;99.90;;;;;;5014466;28;20272;-76
2023/01/25 09:23:52;;;;;;;105.07;38.75;;;1.90;99.90;;;;;;5015064;28;20041;-79
2023/01/25 09:26:38;;;;;;;109.60;41.45;;;1.90;99.90;;;;;;5013729;28;20045;-79
2023/01/25 09:29:07;;;;;;;97.35;36.78;;;1.80;99.90;;;;;;5014870;28;20057;-77
2023/01/25 09:31:42;;;;;;;95.70;35.25;;;1.90;99.90;;;;;;5013696;28;20369;-77
2023/01/25 09:34:33;;;;;;;96.15;36.00;;;1.90;99.90;;;;;;5004976;28;20073;-76
2023/01/25 09:37:00;;;;;;;104.28;37.10;;;1.80;99.90;;;;;;5015074;28;20061;-79
2023/01/25 09:39:29;;;;;;;105.60;38.40;;;1.90;99.90;;;;;;5013763;28;20046;-81
2023/01/25 09:42:09;;;;;;;103.57;37.67;;;3.40;99.90;;;;;;4997700;28;20511;-78
2023/01/25 09:44:47;;;;;;;104.85;34.65;;;2.70;99.90;;;;;;4997241;28;20041;-79
2023/01/25 09:47:28;;;;;;;112.32;40.72;;;1.90;99.90;;;;;;5015105;28;20049;-77
2023/01/25 09:49:59;;;;;;;111.15;37.30;;;2.40;99.90;;;;;;4998159;28;20038;-79
2023/01/25 09:52:53;;;;;;;110.05;39.47;;;1.90;99.90;;;;;;5013707;28;20491;-79
2023/01/25 09:55:25;;;;;;;123.22;42.05;;;1.80;99.90;;;;;;5014523;28;20061;-77
2023/01/25 09:57:58;;;;;;;113.57;40.58;;;3.10;99.90;;;;;;5013634;28;20053;-79
2023/01/25 10:00:37;;;;;;;118.97;43.25;;;2.30;99.90;;;;;;5014639;28;20492;-79
2023/01/25 10:03:26;;;;;;;118.22;42.22;;;2.40;99.90;;;;;;4997846;28;20038;-78
2023/01/25 10:05:57;;;;;;;124.13;44.25;;;2.00;99.90;;;;;;4996474;28;20042;-79
2023/01/25 10:08:43;;;;;;;124.72;43.92;;;2.00;99.90;;;;;;5014623;28;20054;-77
2023/01/25 10:11:23;;;;;;;122.90;45.88;;;2.00;99.90;;;;;;4996578;28;20054;-78
2023/01/25 10:13:54;;;;;;;123.35;44.33;;;2.10;99.90;;;;;;5014603;28;20057;-79
2023/01/25 10:16:31;;;;;;;119.07;43.35;;;3.20;99.90;;;;;;5014806;28;20054;-79
2023/01/25 10:19:08;;;;;;;127.60;45.45;;;3.50;99.90;;;;;;4996789;28;20046;-77
2023/01/25 10:22:02;;;;;;;111.10;40.28;;;2.40;99.90;;;;;;5014538;28;20038;-80
2023/01/25 10:24:54;;;;;;;109.05;39.72;;;2.40;99.90;;;;;;5013219;28;20049;-78
2023/01/25 10:27:47;;;;;;;107.43;40.08;;;2.40;99.90;;;;;;5014329;28;20053;-79
2023/01/25 10:30:27;;;;;;;93.65;36.35;;;2.50;99.90;;;;;;5014365;28;20046;-79
2023/01/25 10:33:01;;;;;;;91.55;33.83;;;3.20;99.90;;;;;;5014418;28;20046;-78
2023/01/25 10:35:35;;;;;;;86.57;34.40;;;2.70;99.90;;;;;;5000699;28;20479;-79
2023/01/25 10:38:28;;;;;;;91.28;35.22;;;2.70;99.90;;;;;;5016624;28;20049;-78
2023/01/25 10:41:18;;;;;;;94.75;35.28;;;2.80;99.90;;;;;;5017744;28;20376;-78
2023/01/25 10:43:46;;;;;;;95.32;35.60;;;2.90;99.90;;;;;;5018040;28;20461;-75
2023/01/25 10:46:19;;;;;;;;;;;2.90;99.90;;;;;;5017111;28;20449;-76
2023/01/25 10:48:46;;;;;;;91.78;32.40;;;3.10;99.90;;;;;;5017406;28;19928;-80
2023/01/25 10:51:29;;;;;;;77.18;28.95;;;3.10;99.90;;;;;;5016488;28;20054;-78
2023/01/25 10:54:04;;;;;;;83.63;30.88;;;3.20;99.90;;;;;;5017930;28;20373;-76
2023/01/25 10:56:34;;;;;;;82.53;31.58;;;3.20;99.90;;;;;;5000274;28;20046;-78
2023/01/25 10:59:16;;;;;;;82.35;29.35;;;4.30;99.90;;;;;;4999034;28;20046;-79
2023/01/25 11:01:44;;;;;;;78.22;30.60;;;3.30;99.90;;;;;;5016972;28;20050;-79
2023/01/25 11:04:33;;;;;;;87.93;32.38;;;3.50;99.90;;;;;;5016785;28;20050;-77
2023/01/25 11:07:04;;;;;;;82.50;30.60;;;3.40;99.90;;;;;;5017255;28;20053;-79
2023/01/25 11:09:35;;;;;;;71.03;27.63;;;5.70;99.90;;;;;;5000310;28;20057;-78
2023/01/25 11:12:15;;;;;;;72.32;28.58;;;5.20;99.90;;;;;;4998923;28;20135;-77
2023/01/25 11:14:43;;;;;;;64.00;25.75;;;3.70;99.90;;;;;;5017484;28;20461;-75
2023/01/25 11:17:30;;;;;;;;;;;6.00;99.90;;;;;;5000418;28;20050;-76
2023/01/25 11:20:19;;;;;;;59.65;23.70;;;3.90;99.90;;;;;;5017100;28;20260;-75
2023/01/25 11:22:56;;;;;;;57.22;22.27;;;4.00;99.90;;;;;;5016830;28;20057;-78
2023/01/25 11:25:30;;;;;;;56.38;22.92;;;6.00;99.90;;;;;;5016064;28;20457;-80
2023/01/25 11:28:22;;;;;;;55.15;22.13;;;4.20;99.90;;;;;;5016869;28;20046;-78
2023/01/25 11:30:52;;;;;;;54.47;22.60;;;4.30;99.90;;;;;;5016777;28;20496;-79
2023/01/25 11:33:21;;;;;;;56.88;21.38;;;4.40;99.90;;;;;;5016991;28;20065;-78
2023/01/25 11:36:19;;;;;;;50.97;21.52;;;4.50;99.90;;;;;;5016487;28;20050;-78
2023/01/25 11:39:14;;;;;;;46.67;20.38;;;4.60;99.90;;;;;;4997655;28;20073;-76
2023/01/25 11:42:15;;;;;;;39.35;16.20;;;4.70;99.90;;;;;;4983056;28;20054;-80
2023/01/25 11:45:08;;;;;;;40.28;15.65;;;4.80;99.90;;;;;;4981724;28;20133;-78
2023/01/25 11:47:59;;;;;;;33.28;13.80;;;4.90;99.90;;;;;;5016468;28;20057;-76
2023/01/25 11:50:37;;;;;;;33.92;14.20;;;5.00;99.90;;;;;;5016493;28;20054;-77
2023/01/25 11:53:17;;;;;;;30.58;12.63;;;5.00;99.90;;;;;;5015432;28;20374;-78
2023/01/25 11:56:12;;;;;;;33.60;13.60;;;5.00;99.90;;;;;;4998925;28;20053;-77
2023/01/25 11:59:04;;;;;;;25.67;11.27;;;5.10;99.90;;;;;;4997804;28;20064;-78
2023/01/25 12:01:49;;;;;;;21.55;9.32;;;5.10;99.90;;;;;;5016265;28;20050;-76
2023/01/25 12:04:50;;;;;;;23.05;9.45;;;5.20;99.90;;;;;;5015367;28;20038;-76
2023/01/25 12:07:29;;;;;;;22.60;9.30;;;5.20;99.90;;;;;;4998840;28;20050;-78
2023/01/25 12:10:23;;;;;;;21.15;9.77;;;5.30;99.90;;;;;;4983154;28;20049;-77
2023/01/25 12:13:04;;;;;;;22.58;9.68;;;5.30;99.90;;;;;;5014847;28;20057;-79
2023/01/25 12:15:50;;;;;;;21.98;9.70;;;5.40;99.90;;;;;;4998805;28;20493;-78
2023/01/25 12:18:31;;;;;;;20.02;9.13;;;5.50;99.90;;;;;;5014462;28;20064;-79
2023/01/25 12:21:22;;;;;;;16.30;6.60;;;5.60;99.90;;;;;;4999063;28;20357;-78
2023/01/25 12:24:04;;;;;;;15.18;6.65;;;5.60;99.90;;;;;;5016008;28;20042;-76
2023/01/25 12:26:37;;;;;;;13.77;5.63;;;5.60;99.90;;;;;;5014782;28;20476;-79
2023/01/25 12:29:29;;;;;;;15.45;6.68;;;5.70;99.90;;;;;;4998692;28;20060;-78
2023/01/25 12:32:07;;;;;;;16.10;5.95;;;5.60;99.90;;;;;;5014810;28;20057;-78
2023/01/25 12:34:36;;;;;;;;;;;5.60;99.90;;;;;;4983065;28;20049;-75
2023/01/25 12:37:12;;;;;;;14.50;6.22;;;5.60;99.90;;;;;;5015592;28;19948;-79
2023/01/25 12:39:45;;;;;;;16.95;6.72;;;5.60;99.90;;;;;;5014435;28;20057;-79
2023/01/25 12:42:23;;;;;;;15.57;6.07;;;5.60;99.90;;;;;;4998776;28;20053;-76
2023/01/25 12:45:24;;;;;;;11.57;5.18;;;5.40;99.90;;;;;;4997685;28;20057;-78
2023/01/25 12:48:03;;;;;;;6.10;3.05;;;5.50;99.90;;;;;;5013115;28;20058;-78
2023/01/25 12:50:44;;;;;;;13.00;5.88;;;5.70;99.90;;;;;;5015822;28;20056;-78
2023/01/25 12:53:31;;;;;;;14.43;6.43;;;5.50;99.90;;;;;;4997046;28;20342;-78
2023/01/25 12:56:00;;;;;;;14.52;6.47;;;3.60;99.90;;;;;;5014732;28;20050;-77
2023/01/25 12:58:40;;;;;;;9.38;4.35;;;6.30;99.90;;;;;;4981160;28;20058;-78
2023/01/25 13:01:41;;;;;;;9.95;4.05;;;5.50;99.90;;;;;;5014974;28;20053;-77
2023/01/25 13:04:14;;;;;;;8.75;4.38;;;5.50;99.90;;;;;;4946024;28;20052;-79
2023/01/25 13:07:01;;;;;;;11.63;5.95;;;5.50;99.90;;;;;;4997974;28;20061;-78
2023/01/25 13:10:13;;;;;;;13.07;6.22;;;5.50;99.90;;;;;;4998150;28;20060;-78
2023/01/25 13:12:50;;;;;;;20.55;8.88;;;5.40;99.90;;;;;;4934679;29;20056;-79